Startpagina
METAR-TAF:

METAR-TAF

Vliegvelden :

Büchel, Duitsland

breedte: 50-10N, lengte: 007-04E, hoogte: 478 m

Actueel weer

Dit bericht is 36 minuten geleden gemaakt, om 17:20 UTC
Wind 5 kt uit het zuidwesten
Temperatuur 11°C
Vochtigheid 71%
Druk 1030 hPa

METAR: ETSB 061720Z AUTO 22005KT //// // ////// 11/06 Q1030 ///

Tijdstip: 19:56 (17:56 UTC)

Verwachting

Dit bericht is 4 uur en het 52 minuten geleden gemaakt, om 13:04 UTC
Verwachting geldig van 06 om 14 UTC tot 06 om 23 UTC
Wind 5 kt uit het westen
Zicht 10 km of meer
Weinig wolken op 3000 ft
Verspreide wolken op 30000 ft

TAF: ETSB 061304Z 0614/0623 26005KT 9999 NSW FEW030 SCT300 BY ETGL

Waarnemingen en weersverwachtingen van meer dan 4000 vliegvelden (METAR en TAF).

De beschikbare stations zijn de gele en rode punten op de kaart.

Ga met uw muis naar het station om de naam te zien.

Klik dan om waarnemingen en weersverwachtingen te zien.

kaart wijzigen: klik op de groene knoppen met een zwart kruis om in te zoomen, op de groene knop met een streepje om uit te zoomen of op de groene pijlen voor aangrenzende kaarten.


METAR-TAF: